sensor_id;sensor_type;location;lat;lon;timestamp;temperature;humidity
38902;DHT22;24661;53.566;9.910;2022-10-31T00:01:11;13.10;99.90
38902;DHT22;24661;53.566;9.910;2022-10-31T00:03:36;13.10;99.90
38902;DHT22;24661;53.566;9.910;2022-10-31T00:06:02;13.10;99.90
38902;DHT22;24661;53.566;9.910;2022-10-31T00:08:27;13.20;99.90
38902;DHT22;24661;53.566;9.910;2022-10-31T00:10:53;13.20;99.90
38902;DHT22;24661;53.566;9.910;2022-10-31T00:13:19;13.20;99.90
38902;DHT22;24661;53.566;9.910;2022-10-31T00:15:44;13.20;99.90
38902;DHT22;24661;53.566;9.910;2022-10-31T00:18:10;13.20;99.90
38902;DHT22;24661;53.566;9.910;2022-10-31T00:20:37;13.10;99.90
38902;DHT22;24661;53.566;9.910;2022-10-31T00:23:03;13.10;99.90
38902;DHT22;24661;53.566;9.910;2022-10-31T00:25:33;13.10;99.90
38902;DHT22;24661;53.566;9.910;2022-10-31T00:27:59;13.10;99.90
38902;DHT22;24661;53.566;9.910;2022-10-31T00:30:25;13.10;99.90
38902;DHT22;24661;53.566;9.910;2022-10-31T00:32:50;13.10;99.90
38902;DHT22;24661;53.566;9.910;2022-10-31T00:35:16;13.10;99.90
38902;DHT22;24661;53.566;9.910;2022-10-31T00:37:48;13.10;99.90
38902;DHT22;24661;53.566;9.910;2022-10-31T00:40:13;13.00;99.90
38902;DHT22;24661;53.566;9.910;2022-10-31T00:42:40;13.10;99.90
38902;DHT22;24661;53.566;9.910;2022-10-31T00:45:08;13.00;99.90
38902;DHT22;24661;53.566;9.910;2022-10-31T00:47:34;13.00;99.90
38902;DHT22;24661;53.566;9.910;2022-10-31T00:49:59;13.00;99.90
38902;DHT22;24661;53.566;9.910;2022-10-31T00:52:25;13.00;99.90
38902;DHT22;24661;53.566;9.910;2022-10-31T00:54:50;12.90;99.90
38902;DHT22;24661;53.566;9.910;2022-10-31T00:57:16;12.90;99.90
38902;DHT22;24661;53.566;9.910;2022-10-31T00:59:42;12.90;99.90
38902;DHT22;24661;53.566;9.910;2022-10-31T01:02:07;13.70;99.90
38902;DHT22;24661;53.566;9.910;2022-10-31T01:04:33;12.80;99.90
38902;DHT22;24661;53.566;9.910;2022-10-31T01:06:59;12.80;99.90
38902;DHT22;24661;53.566;9.910;2022-10-31T01:09:24;12.70;99.90
38902;DHT22;24661;53.566;9.910;2022-10-31T01:11:50;12.70;99.90
38902;DHT22;24661;53.566;9.910;2022-10-31T01:14:15;12.70;99.90
38902;DHT22;24661;53.566;9.910;2022-10-31T01:16:41;12.70;99.90
38902;DHT22;24661;53.566;9.910;2022-10-31T01:19:06;12.60;99.90
38902;DHT22;24661;53.566;9.910;2022-10-31T01:21:32;12.70;99.90
38902;DHT22;24661;53.566;9.910;2022-10-31T01:23:58;12.60;99.90
38902;DHT22;24661;53.566;9.910;2022-10-31T01:26:25;12.70;99.90
38902;DHT22;24661;53.566;9.910;2022-10-31T01:28:56;12.60;99.90
38902;DHT22;24661;53.566;9.910;2022-10-31T01:31:25;12.70;99.90
38902;DHT22;24661;53.566;9.910;2022-10-31T01:33:51;12.70;99.90
38902;DHT22;24661;53.566;9.910;2022-10-31T01:36:26;12.80;99.90
38902;DHT22;24661;53.566;9.910;2022-10-31T01:38:54;12.70;99.90
38902;DHT22;24661;53.566;9.910;2022-10-31T01:41:29;12.80;99.90
38902;DHT22;24661;53.566;9.910;2022-10-31T01:43:56;12.70;99.90
38902;DHT22;24661;53.566;9.910;2022-10-31T01:46:35;12.70;99.90
38902;DHT22;24661;53.566;9.910;2022-10-31T01:49:04;12.70;99.90
38902;DHT22;24661;53.566;9.910;2022-10-31T01:51:34;12.70;99.90
38902;DHT22;24661;53.566;9.910;2022-10-31T01:54:06;12.60;99.90
38902;DHT22;24661;53.566;9.910;2022-10-31T01:56:33;12.60;99.90
38902;DHT22;24661;53.566;9.910;2022-10-31T01:59:00;12.60;99.90
38902;DHT22;24661;53.566;9.910;2022-10-31T02:01:27;12.60;99.90
38902;DHT22;24661;53.566;9.910;2022-10-31T02:03:55;12.60;99.90
38902;DHT22;24661;53.566;9.910;2022-10-31T02:06:35;12.60;99.90
38902;DHT22;24661;53.566;9.910;2022-10-31T02:09:04;12.70;99.90
38902;DHT22;24661;53.566;9.910;2022-10-31T02:11:31;12.60;99.90
38902;DHT22;24661;53.566;9.910;2022-10-31T02:13:58;12.70;99.90
38902;DHT22;24661;53.566;9.910;2022-10-31T02:16:25;12.00;99.90
38902;DHT22;24661;53.566;9.910;2022-10-31T02:18:51;12.70;99.90
38902;DHT22;24661;53.566;9.910;2022-10-31T02:21:25;12.70;99.90
38902;DHT22;24661;53.566;9.910;2022-10-31T02:36:25;12.60;99.90
38902;DHT22;24661;53.566;9.910;2022-10-31T02:44:05;12.60;99.90
38902;DHT22;24661;53.566;9.910;2022-10-31T02:46:48;12.50;99.90
38902;DHT22;24661;53.566;9.910;2022-10-31T02:49:36;12.50;99.90
38902;DHT22;24661;53.566;9.910;2022-10-31T02:52:17;12.50;99.90
38902;DHT22;24661;53.566;9.910;2022-10-31T02:54:45;12.50;99.90
38902;DHT22;24661;53.566;9.910;2022-10-31T02:57:11;12.50;99.90
38902;DHT22;24661;53.566;9.910;2022-10-31T02:59:40;12.40;99.90
38902;DHT22;24661;53.566;9.910;2022-10-31T03:02:36;12.40;99.90
38902;DHT22;24661;53.566;9.910;2022-10-31T03:05:19;12.40;99.90
38902;DHT22;24661;53.566;9.910;2022-10-31T03:07:54;12.40;99.90
38902;DHT22;24661;53.566;9.910;2022-10-31T03:13:10;12.40;99.90
38902;DHT22;24661;53.566;9.910;2022-10-31T03:15:45;12.40;99.90
38902;DHT22;24661;53.566;9.910;2022-10-31T03:18:13;12.30;99.90
38902;DHT22;24661;53.566;9.910;2022-10-31T03:20:51;12.30;99.90
38902;DHT22;24661;53.566;9.910;2022-10-31T03:23:22;12.30;99.90
38902;DHT22;24661;53.566;9.910;2022-10-31T03:25:51;12.30;99.90
38902;DHT22;24661;53.566;9.910;2022-10-31T03:28:23;12.30;99.90
38902;DHT22;24661;53.566;9.910;2022-10-31T03:30:52;12.30;99.90
38902;DHT22;24661;53.566;9.910;2022-10-31T03:33:26;12.30;99.90
38902;DHT22;24661;53.566;9.910;2022-10-31T03:35:53;12.40;99.90
38902;DHT22;24661;53.566;9.910;2022-10-31T03:38:21;13.70;99.90
38902;DHT22;24661;53.566;9.910;2022-10-31T03:40:48;12.40;99.90
38902;DHT22;24661;53.566;9.910;2022-10-31T03:43:19;12.40;99.90
38902;DHT22;24661;53.566;9.910;2022-10-31T03:45:47;12.50;99.90
38902;DHT22;24661;53.566;9.910;2022-10-31T03:48:13;12.50;99.90
38902;DHT22;24661;53.566;9.910;2022-10-31T03:50:54;12.50;99.90
38902;DHT22;24661;53.566;9.910;2022-10-31T03:56:05;12.50;99.90
38902;DHT22;24661;53.566;9.910;2022-10-31T03:58:41;12.50;99.90
38902;DHT22;24661;53.566;9.910;2022-10-31T04:01:11;12.60;99.90
38902;DHT22;24661;53.566;9.910;2022-10-31T04:03:39;12.60;99.90
38902;DHT22;24661;53.566;9.910;2022-10-31T04:06:09;12.60;99.90
38902;DHT22;24661;53.566;9.910;2022-10-31T04:08:47;12.60;99.90
38902;DHT22;24661;53.566;9.910;2022-10-31T04:11:14;12.60;99.90
38902;DHT22;24661;53.566;9.910;2022-10-31T04:13:43;12.70;99.90
38902;DHT22;24661;53.566;9.910;2022-10-31T04:16:10;13.40;99.90
38902;DHT22;24661;53.566;9.910;2022-10-31T04:18:36;12.70;99.90
38902;DHT22;24661;53.566;9.910;2022-10-31T04:21:05;12.80;99.90
38902;DHT22;24661;53.566;9.910;2022-10-31T04:23:31;12.80;99.90
38902;DHT22;24661;53.566;9.910;2022-10-31T04:25:57;12.70;99.90
38902;DHT22;24661;53.566;9.910;2022-10-31T04:28:23;12.70;99.90
38902;DHT22;24661;53.566;9.910;2022-10-31T04:30:48;12.70;99.90
38902;DHT22;24661;53.566;9.910;2022-10-31T04:33:14;12.70;99.90
38902;DHT22;24661;53.566;9.910;2022-10-31T04:35:40;12.70;99.90
38902;DHT22;24661;53.566;9.910;2022-10-31T04:38:05;12.70;99.90
38902;DHT22;24661;53.566;9.910;2022-10-31T04:40:31;12.70;99.90
38902;DHT22;24661;53.566;9.910;2022-10-31T04:42:57;12.90;99.90
38902;DHT22;24661;53.566;9.910;2022-10-31T04:45:22;12.70;99.90
38902;DHT22;24661;53.566;9.910;2022-10-31T04:47:48;12.70;99.90
38902;DHT22;24661;53.566;9.910;2022-10-31T04:50:13;12.80;99.90
38902;DHT22;24661;53.566;9.910;2022-10-31T04:52:43;12.80;99.90
38902;DHT22;24661;53.566;9.910;2022-10-31T04:55:10;12.80;99.90
38902;DHT22;24661;53.566;9.910;2022-10-31T04:57:48;12.80;99.90
38902;DHT22;24661;53.566;9.910;2022-10-31T05:00:15;12.80;99.90
38902;DHT22;24661;53.566;9.910;2022-10-31T05:02:45;12.80;99.90
38902;DHT22;24661;53.566;9.910;2022-10-31T05:05:12;12.80;99.90
38902;DHT22;24661;53.566;9.910;2022-10-31T05:07:39;12.80;99.90
38902;DHT22;24661;53.566;9.910;2022-10-31T05:10:06;12.80;99.90
38902;DHT22;24661;53.566;9.910;2022-10-31T05:12:31;12.80;99.90
38902;DHT22;24661;53.566;9.910;2022-10-31T05:14:58;12.80;99.90
38902;DHT22;24661;53.566;9.910;2022-10-31T05:17:23;12.80;99.90
38902;DHT22;24661;53.566;9.910;2022-10-31T05:19:49;12.80;99.90
38902;DHT22;24661;53.566;9.910;2022-10-31T05:22:15;12.80;99.90
38902;DHT22;24661;53.566;9.910;2022-10-31T05:24:40;12.90;99.90
38902;DHT22;24661;53.566;9.910;2022-10-31T05:27:06;12.90;99.90
38902;DHT22;24661;53.566;9.910;2022-10-31T05:29:31;12.90;99.90
38902;DHT22;24661;53.566;9.910;2022-10-31T05:31:58;12.90;99.90
38902;DHT22;24661;53.566;9.910;2022-10-31T05:34:24;13.00;99.90
38902;DHT22;24661;53.566;9.910;2022-10-31T05:36:50;13.00;99.90
38902;DHT22;24661;53.566;9.910;2022-10-31T05:39:16;13.10;99.90
38902;DHT22;24661;53.566;9.910;2022-10-31T05:41:42;13.10;99.90
38902;DHT22;24661;53.566;9.910;2022-10-31T05:44:07;13.10;99.90
38902;DHT22;24661;53.566;9.910;2022-10-31T05:46:33;13.10;99.90
38902;DHT22;24661;53.566;9.910;2022-10-31T05:48:58;13.00;99.90
38902;DHT22;24661;53.566;9.910;2022-10-31T05:51:24;13.10;99.90
38902;DHT22;24661;53.566;9.910;2022-10-31T05:53:50;13.00;99.90
38902;DHT22;24661;53.566;9.910;2022-10-31T05:56:15;13.00;99.90
38902;DHT22;24661;53.566;9.910;2022-10-31T05:58:41;11.10;99.90
38902;DHT22;24661;53.566;9.910;2022-10-31T06:01:06;13.00;99.90
38902;DHT22;24661;53.566;9.910;2022-10-31T06:03:32;13.00;99.90
38902;DHT22;24661;53.566;9.910;2022-10-31T06:05:58;13.00;99.90
38902;DHT22;24661;53.566;9.910;2022-10-31T06:08:23;13.00;99.90
38902;DHT22;24661;53.566;9.910;2022-10-31T06:10:49;13.00;99.90
38902;DHT22;24661;53.566;9.910;2022-10-31T06:13:14;12.90;99.90
38902;DHT22;24661;53.566;9.910;2022-10-31T06:15:41;12.90;99.90
38902;DHT22;24661;53.566;9.910;2022-10-31T06:18:08;12.90;99.90
38902;DHT22;24661;53.566;9.910;2022-10-31T06:20:34;12.90;99.90
38902;DHT22;24661;53.566;9.910;2022-10-31T06:23:00;12.80;99.90
38902;DHT22;24661;53.566;9.910;2022-10-31T06:25:26;12.80;99.90
38902;DHT22;24661;53.566;9.910;2022-10-31T06:27:52;12.80;99.90
38902;DHT22;24661;53.566;9.910;2022-10-31T06:30:17;12.90;99.90
38902;DHT22;24661;53.566;9.910;2022-10-31T06:32:43;13.70;99.90
38902;DHT22;24661;53.566;9.910;2022-10-31T06:35:09;12.80;99.90
38902;DHT22;24661;53.566;9.910;2022-10-31T06:37:34;12.80;99.90
38902;DHT22;24661;53.566;9.910;2022-10-31T06:40:00;12.80;99.90
38902;DHT22;24661;53.566;9.910;2022-10-31T06:42:26;12.80;99.90
38902;DHT22;24661;53.566;9.910;2022-10-31T06:44:51;12.80;99.90
38902;DHT22;24661;53.566;9.910;2022-10-31T06:47:17;12.80;99.90
38902;DHT22;24661;53.566;9.910;2022-10-31T06:49:42;12.70;99.90
38902;DHT22;24661;53.566;9.910;2022-10-31T06:52:08;12.80;99.90
38902;DHT22;24661;53.566;9.910;2022-10-31T06:54:33;12.80;99.90
38902;DHT22;24661;53.566;9.910;2022-10-31T06:56:59;13.90;99.90
38902;DHT22;24661;53.566;9.910;2022-10-31T06:59:25;12.80;99.90
38902;DHT22;24661;53.566;9.910;2022-10-31T07:01:50;12.80;99.90
38902;DHT22;24661;53.566;9.910;2022-10-31T07:04:16;12.70;99.90
38902;DHT22;24661;53.566;9.910;2022-10-31T07:06:41;12.80;99.90
38902;DHT22;24661;53.566;9.910;2022-10-31T07:09:07;12.80;99.90
38902;DHT22;24661;53.566;9.910;2022-10-31T07:11:32;12.80;99.90
38902;DHT22;24661;53.566;9.910;2022-10-31T07:13:58;12.70;99.90
38902;DHT22;24661;53.566;9.910;2022-10-31T07:16:24;12.80;99.90
38902;DHT22;24661;53.566;9.910;2022-10-31T07:18:49;12.70;99.90
38902;DHT22;24661;53.566;9.910;2022-10-31T07:21:15;12.70;99.90
38902;DHT22;24661;53.566;9.910;2022-10-31T07:23:41;12.60;99.90
38902;DHT22;24661;53.566;9.910;2022-10-31T07:26:08;12.60;99.90
38902;DHT22;24661;53.566;9.910;2022-10-31T07:28:34;12.50;99.90
38902;DHT22;24661;53.566;9.910;2022-10-31T07:31:00;12.50;99.90
38902;DHT22;24661;53.566;9.910;2022-10-31T07:33:25;12.50;99.90
38902;DHT22;24661;53.566;9.910;2022-10-31T07:35:52;12.40;99.90
38902;DHT22;24661;53.566;9.910;2022-10-31T07:38:17;12.50;99.90
38902;DHT22;24661;53.566;9.910;2022-10-31T07:40:43;12.40;99.90
38902;DHT22;24661;53.566;9.910;2022-10-31T07:43:10;12.40;99.90
38902;DHT22;24661;53.566;9.910;2022-10-31T07:45:36;12.40;99.90
38902;DHT22;24661;53.566;9.910;2022-10-31T07:48:02;12.40;99.90
38902;DHT22;24661;53.566;9.910;2022-10-31T07:50:31;12.40;99.90
38902;DHT22;24661;53.566;9.910;2022-10-31T07:53:10;12.40;99.90
38902;DHT22;24661;53.566;9.910;2022-10-31T07:55:36;12.40;99.90
38902;DHT22;24661;53.566;9.910;2022-10-31T07:58:04;12.50;99.90
38902;DHT22;24661;53.566;9.910;2022-10-31T08:00:31;12.50;99.90
38902;DHT22;24661;53.566;9.910;2022-10-31T08:03:03;12.50;99.90
38902;DHT22;24661;53.566;9.910;2022-10-31T08:05:29;12.50;99.90
38902;DHT22;24661;53.566;9.910;2022-10-31T08:07:55;12.50;99.90
38902;DHT22;24661;53.566;9.910;2022-10-31T08:10:21;12.50;99.90
38902;DHT22;24661;53.566;9.910;2022-10-31T08:12:47;12.60;99.90
38902;DHT22;24661;53.566;9.910;2022-10-31T08:15:19;12.60;99.90
38902;DHT22;24661;53.566;9.910;2022-10-31T08:17:45;12.60;99.90
38902;DHT22;24661;53.566;9.910;2022-10-31T08:20:10;12.70;99.90
38902;DHT22;24661;53.566;9.910;2022-10-31T08:22:36;12.80;99.90
38902;DHT22;24661;53.566;9.910;2022-10-31T08:25:02;12.80;99.90
38902;DHT22;24661;53.566;9.910;2022-10-31T08:27:27;12.80;99.90
38902;DHT22;24661;53.566;9.910;2022-10-31T08:29:53;13.00;99.90
38902;DHT22;24661;53.566;9.910;2022-10-31T08:32:18;12.90;99.90
38902;DHT22;24661;53.566;9.910;2022-10-31T08:34:44;12.90;99.90
38902;DHT22;24661;53.566;9.910;2022-10-31T08:37:09;13.10;99.90
38902;DHT22;24661;53.566;9.910;2022-10-31T08:39:35;13.10;99.90
38902;DHT22;24661;53.566;9.910;2022-10-31T08:42:01;13.20;99.90
38902;DHT22;24661;53.566;9.910;2022-10-31T08:44:26;13.20;99.90
38902;DHT22;24661;53.566;9.910;2022-10-31T08:46:51;13.20;99.90
38902;DHT22;24661;53.566;9.910;2022-10-31T08:49:18;13.20;99.90
38902;DHT22;24661;53.566;9.910;2022-10-31T08:51:47;13.20;99.90
38902;DHT22;24661;53.566;9.910;2022-10-31T08:54:13;13.30;99.90
38902;DHT22;24661;53.566;9.910;2022-10-31T08:56:39;13.30;99.90
38902;DHT22;24661;53.566;9.910;2022-10-31T08:59:05;13.40;99.90
38902;DHT22;24661;53.566;9.910;2022-10-31T09:01:31;13.50;99.90
38902;DHT22;24661;53.566;9.910;2022-10-31T09:03:56;13.70;99.90
38902;DHT22;24661;53.566;9.910;2022-10-31T09:06:22;13.60;99.90
38902;DHT22;24661;53.566;9.910;2022-10-31T09:08:47;13.40;99.90
38902;DHT22;24661;53.566;9.910;2022-10-31T09:11:13;13.50;99.90
38902;DHT22;24661;53.566;9.910;2022-10-31T09:13:38;13.50;99.90
38902;DHT22;24661;53.566;9.910;2022-10-31T09:16:04;13.60;99.90
38902;DHT22;24661;53.566;9.910;2022-10-31T09:18:30;13.60;99.90
38902;DHT22;24661;53.566;9.910;2022-10-31T09:20:58;13.60;99.90
38902;DHT22;24661;53.566;9.910;2022-10-31T09:23:24;13.70;99.90
38902;DHT22;24661;53.566;9.910;2022-10-31T09:25:51;13.70;99.90
38902;DHT22;24661;53.566;9.910;2022-10-31T09:28:20;13.80;99.90
38902;DHT22;24661;53.566;9.910;2022-10-31T09:30:51;13.80;99.90
38902;DHT22;24661;53.566;9.910;2022-10-31T09:33:17;12.90;99.90
38902;DHT22;24661;53.566;9.910;2022-10-31T09:35:43;13.80;99.90
38902;DHT22;24661;53.566;9.910;2022-10-31T09:38:11;14.90;99.90
38902;DHT22;24661;53.566;9.910;2022-10-31T09:40:44;13.90;99.90
38902;DHT22;24661;53.566;9.910;2022-10-31T09:43:23;13.90;99.90
38902;DHT22;24661;53.566;9.910;2022-10-31T09:46:24;13.90;99.90
38902;DHT22;24661;53.566;9.910;2022-10-31T09:51:41;14.00;99.90
38902;DHT22;24661;53.566;9.910;2022-10-31T09:54:16;14.00;99.90
38902;DHT22;24661;53.566;9.910;2022-10-31T09:56:43;14.00;99.90
38902;DHT22;24661;53.566;9.910;2022-10-31T09:59:30;14.00;99.90
38902;DHT22;24661;53.566;9.910;2022-10-31T10:02:03;14.00;99.90
38902;DHT22;24661;53.566;9.910;2022-10-31T10:04:44;14.00;99.90
38902;DHT22;24661;53.566;9.910;2022-10-31T10:07:22;14.00;99.90
38902;DHT22;24661;53.566;9.910;2022-10-31T10:09:52;14.10;99.90
38902;DHT22;24661;53.566;9.910;2022-10-31T10:13:04;14.10;99.90
38902;DHT22;24661;53.566;9.910;2022-10-31T10:15:29;14.10;99.90
38902;DHT22;24661;53.566;9.910;2022-10-31T10:18:11;14.10;99.90
38902;DHT22;24661;53.566;9.910;2022-10-31T10:20:41;14.10;99.90
38902;DHT22;24661;53.566;9.910;2022-10-31T10:26:19;14.00;99.90
38902;DHT22;24661;53.566;9.910;2022-10-31T10:28:51;14.00;99.90
38902;DHT22;24661;53.566;9.910;2022-10-31T10:31:35;14.10;99.90
38902;DHT22;24661;53.566;9.910;2022-10-31T10:34:23;14.10;99.90
38902;DHT22;24661;53.566;9.910;2022-10-31T10:36:54;14.20;99.90
38902;DHT22;24661;53.566;9.910;2022-10-31T10:39:30;14.20;99.90
38902;DHT22;24661;53.566;9.910;2022-10-31T10:41:58;14.20;99.90
38902;DHT22;24661;53.566;9.910;2022-10-31T10:44:48;14.20;99.90
38902;DHT22;24661;53.566;9.910;2022-10-31T10:47:42;14.20;99.90
38902;DHT22;24661;53.566;9.910;2022-10-31T10:50:15;14.30;99.90
38902;DHT22;24661;53.566;9.910;2022-10-31T10:53:11;14.30;99.90
38902;DHT22;24661;53.566;9.910;2022-10-31T10:56:06;14.40;99.90
38902;DHT22;24661;53.566;9.910;2022-10-31T10:58:35;14.50;99.90
38902;DHT22;24661;53.566;9.910;2022-10-31T11:01:13;14.50;99.90
38902;DHT22;24661;53.566;9.910;2022-10-31T11:03:40;14.50;99.90
38902;DHT22;24661;53.566;9.910;2022-10-31T11:06:19;14.50;99.90
38902;DHT22;24661;53.566;9.910;2022-10-31T11:08:48;14.50;99.90
38902;DHT22;24661;53.566;9.910;2022-10-31T11:13:44;14.30;99.90
38902;DHT22;24661;53.566;9.910;2022-10-31T11:16:14;14.30;99.90
38902;DHT22;24661;53.566;9.910;2022-10-31T11:18:46;14.30;99.90
38902;DHT22;24661;53.566;9.910;2022-10-31T11:21:25;14.30;99.90
38902;DHT22;24661;53.566;9.910;2022-10-31T11:24:14;14.40;99.90
38902;DHT22;24661;53.566;9.910;2022-10-31T11:26:43;14.50;99.90
38902;DHT22;24661;53.566;9.910;2022-10-31T11:29:23;14.50;99.90
38902;DHT22;24661;53.566;9.910;2022-10-31T11:31:54;14.50;99.90
38902;DHT22;24661;53.566;9.910;2022-10-31T11:34:26;14.50;99.90
38902;DHT22;24661;53.566;9.910;2022-10-31T11:36:53;14.40;99.90
38902;DHT22;24661;53.566;9.910;2022-10-31T11:39:23;14.40;99.90
38902;DHT22;24661;53.566;9.910;2022-10-31T11:41:51;14.50;99.90
38902;DHT22;24661;53.566;9.910;2022-10-31T11:44:20;14.50;99.90
38902;DHT22;24661;53.566;9.910;2022-10-31T11:46:51;14.60;99.90
38902;DHT22;24661;53.566;9.910;2022-10-31T11:49:40;14.60;99.90
38902;DHT22;24661;53.566;9.910;2022-10-31T11:52:14;14.60;99.90
38902;DHT22;24661;53.566;9.910;2022-10-31T11:54:47;14.60;99.90
38902;DHT22;24661;53.566;9.910;2022-10-31T11:57:32;14.50;99.90
38902;DHT22;24661;53.566;9.910;2022-10-31T12:00:00;14.40;99.90
38902;DHT22;24661;53.566;9.910;2022-10-31T12:02:26;14.40;99.90
38902;DHT22;24661;53.566;9.910;2022-10-31T12:05:08;14.40;99.90
38902;DHT22;24661;53.566;9.910;2022-10-31T12:07:36;14.40;99.90
38902;DHT22;24661;53.566;9.910;2022-10-31T12:10:09;14.60;99.90
38902;DHT22;24661;53.566;9.910;2022-10-31T12:15:29;14.40;99.90
38902;DHT22;24661;53.566;9.910;2022-10-31T12:21:17;14.50;99.90
38902;DHT22;24661;53.566;9.910;2022-10-31T12:24:13;14.60;99.90
38902;DHT22;24661;53.566;9.910;2022-10-31T12:35:38;14.60;99.90
38902;DHT22;24661;53.566;9.910;2022-10-31T12:38:28;14.70;99.90
38902;DHT22;24661;53.566;9.910;2022-10-31T12:41:12;14.60;99.90
38902;DHT22;24661;53.566;9.910;2022-10-31T12:49:34;14.70;99.90
38902;DHT22;24661;53.566;9.910;2022-10-31T12:52:24;14.70;99.90
38902;DHT22;24661;53.566;9.910;2022-10-31T12:55:37;14.80;99.90
38902;DHT22;24661;53.566;9.910;2022-10-31T12:58:12;14.70;99.90
38902;DHT22;24661;53.566;9.910;2022-10-31T13:00:43;14.70;99.90
38902;DHT22;24661;53.566;9.910;2022-10-31T13:06:03;14.70;99.90
38902;DHT22;24661;53.566;9.910;2022-10-31T13:08:43;14.80;99.90
38902;DHT22;24661;53.566;9.910;2022-10-31T13:11:37;14.80;99.90
38902;DHT22;24661;53.566;9.910;2022-10-31T13:14:11;14.90;99.90
38902;DHT22;24661;53.566;9.910;2022-10-31T13:16:44;14.90;99.90
38902;DHT22;24661;53.566;9.910;2022-10-31T13:19:22;15.00;99.90
38902;DHT22;24661;53.566;9.910;2022-10-31T13:22:09;15.00;99.90
38902;DHT22;24661;53.566;9.910;2022-10-31T13:24:42;14.90;99.90
38902;DHT22;24661;53.566;9.910;2022-10-31T13:27:30;14.90;99.90
38902;DHT22;24661;53.566;9.910;2022-10-31T13:30:05;14.80;99.90
38902;DHT22;24661;53.566;9.910;2022-10-31T13:33:13;14.80;99.90
38902;DHT22;24661;53.566;9.910;2022-10-31T13:41:49;14.90;99.90
38902;DHT22;24661;53.566;9.910;2022-10-31T13:44:24;15.00;99.90
38902;DHT22;24661;53.566;9.910;2022-10-31T13:46:53;14.90;99.90
38902;DHT22;24661;53.566;9.910;2022-10-31T13:59:38;14.80;99.90
38902;DHT22;24661;53.566;9.910;2022-10-31T14:02:15;14.80;99.90
38902;DHT22;24661;53.566;9.910;2022-10-31T14:04:51;14.80;99.90
38902;DHT22;24661;53.566;9.910;2022-10-31T14:07:22;14.90;99.90
38902;DHT22;24661;53.566;9.910;2022-10-31T14:12:38;15.00;99.90
38902;DHT22;24661;53.566;9.910;2022-10-31T14:15:23;15.00;99.90
38902;DHT22;24661;53.566;9.910;2022-10-31T14:17:56;15.10;99.90
38902;DHT22;24661;53.566;9.910;2022-10-31T14:22:53;15.00;99.90
38902;DHT22;24661;53.566;9.910;2022-10-31T14:25:34;15.00;99.90
38902;DHT22;24661;53.566;9.910;2022-10-31T14:31:01;14.80;99.90
38902;DHT22;24661;53.566;9.910;2022-10-31T14:33:30;14.70;99.90
38902;DHT22;24661;53.566;9.910;2022-10-31T14:36:17;14.80;99.90
38902;DHT22;24661;53.566;9.910;2022-10-31T14:39:02;14.70;99.90
38902;DHT22;24661;53.566;9.910;2022-10-31T14:47:34;14.60;99.90
38902;DHT22;24661;53.566;9.910;2022-10-31T14:55:51;14.60;99.90
38902;DHT22;24661;53.566;9.910;2022-10-31T15:05:09;14.40;99.90
38902;DHT22;24661;53.566;9.910;2022-10-31T15:07:36;14.30;99.90
38902;DHT22;24661;53.566;9.910;2022-10-31T15:12:48;14.30;99.90
38902;DHT22;24661;53.566;9.910;2022-10-31T15:15:23;14.30;99.90
38902;DHT22;24661;53.566;9.910;2022-10-31T15:17:54;14.30;99.90
38902;DHT22;24661;53.566;9.910;2022-10-31T15:20:22;14.20;99.90
38902;DHT22;24661;53.566;9.910;2022-10-31T15:22:49;14.20;99.90
38902;DHT22;24661;53.566;9.910;2022-10-31T15:25:18;14.20;99.90
38902;DHT22;24661;53.566;9.910;2022-10-31T15:27:46;14.20;99.90
38902;DHT22;24661;53.566;9.910;2022-10-31T15:30:19;14.20;99.90
38902;DHT22;24661;53.566;9.910;2022-10-31T15:32:45;14.10;99.90
38902;DHT22;24661;53.566;9.910;2022-10-31T15:35:21;14.10;99.90
38902;DHT22;24661;53.566;9.910;2022-10-31T15:37:47;14.20;99.90
38902;DHT22;24661;53.566;9.910;2022-10-31T15:40:16;14.10;99.90
38902;DHT22;24661;53.566;9.910;2022-10-31T15:42:42;14.10;99.90
38902;DHT22;24661;53.566;9.910;2022-10-31T15:47:35;14.10;99.90
38902;DHT22;24661;53.566;9.910;2022-10-31T15:50:02;14.00;99.90
38902;DHT22;24661;53.566;9.910;2022-10-31T15:52:42;14.00;99.90
38902;DHT22;24661;53.566;9.910;2022-10-31T15:57:40;14.00;99.90
38902;DHT22;24661;53.566;9.910;2022-10-31T16:02:49;13.90;99.90
38902;DHT22;24661;53.566;9.910;2022-10-31T16:05:17;13.80;99.90
38902;DHT22;24661;53.566;9.910;2022-10-31T16:07:51;13.70;99.90
38902;DHT22;24661;53.566;9.910;2022-10-31T16:10:26;13.70;99.90
38902;DHT22;24661;53.566;9.910;2022-10-31T16:12:53;13.70;99.90
38902;DHT22;24661;53.566;9.910;2022-10-31T16:15:20;13.60;99.90
38902;DHT22;24661;53.566;9.910;2022-10-31T16:17:50;13.60;99.90
38902;DHT22;24661;53.566;9.910;2022-10-31T16:20:27;13.50;99.90
38902;DHT22;24661;53.566;9.910;2022-10-31T16:22:55;13.50;99.90
38902;DHT22;24661;53.566;9.910;2022-10-31T16:25:40;13.50;99.90
38902;DHT22;24661;53.566;9.910;2022-10-31T16:28:16;13.50;99.90
38902;DHT22;24661;53.566;9.910;2022-10-31T16:30:47;13.60;99.90
38902;DHT22;24661;53.566;9.910;2022-10-31T16:33:34;13.60;99.90
38902;DHT22;24661;53.566;9.910;2022-10-31T16:38:53;13.60;99.90
38902;DHT22;24661;53.566;9.910;2022-10-31T16:41:19;13.60;99.90
38902;DHT22;24661;53.566;9.910;2022-10-31T16:43:44;13.50;99.90
38902;DHT22;24661;53.566;9.910;2022-10-31T16:46:18;13.50;99.90
38902;DHT22;24661;53.566;9.910;2022-10-31T16:48:44;13.50;99.90
38902;DHT22;24661;53.566;9.910;2022-10-31T16:51:09;13.50;99.90
38902;DHT22;24661;53.566;9.910;2022-10-31T16:53:35;13.50;99.90
38902;DHT22;24661;53.566;9.910;2022-10-31T16:56:03;13.40;99.90
38902;DHT22;24661;53.566;9.910;2022-10-31T16:58:32;13.40;99.90
38902;DHT22;24661;53.566;9.910;2022-10-31T17:00:59;13.40;99.90
38902;DHT22;24661;53.566;9.910;2022-10-31T17:03:25;13.40;99.90
38902;DHT22;24661;53.566;9.910;2022-10-31T17:05:51;13.40;99.90
38902;DHT22;24661;53.566;9.910;2022-10-31T17:08:17;13.30;99.90
38902;DHT22;24661;53.566;9.910;2022-10-31T17:10:43;13.30;99.90
38902;DHT22;24661;53.566;9.910;2022-10-31T17:13:17;13.30;99.90
38902;DHT22;24661;53.566;9.910;2022-10-31T17:15:50;13.30;99.90
38902;DHT22;24661;53.566;9.910;2022-10-31T17:18:18;13.30;99.90
38902;DHT22;24661;53.566;9.910;2022-10-31T17:20:44;13.30;99.90
38902;DHT22;24661;53.566;9.910;2022-10-31T17:23:11;13.30;99.90
38902;DHT22;24661;53.566;9.910;2022-10-31T17:25:37;13.40;99.90
38902;DHT22;24661;53.566;9.910;2022-10-31T17:28:03;13.30;99.90
38902;DHT22;24661;53.566;9.910;2022-10-31T17:30:30;13.30;99.90
38902;DHT22;24661;53.566;9.910;2022-10-31T17:32:55;13.20;99.90
38902;DHT22;24661;53.566;9.910;2022-10-31T17:35:21;13.20;99.90
38902;DHT22;24661;53.566;9.910;2022-10-31T17:37:47;13.20;99.90
38902;DHT22;24661;53.566;9.910;2022-10-31T17:40:16;13.20;99.90